createdAt,value
2018-05-07T00:02:17.061Z,1.50
2018-05-07T00:04:44.691Z,1.80
2018-05-07T00:07:11.378Z,1.80
2018-05-07T00:09:38.773Z,2.33
2018-05-07T00:12:05.449Z,2.23
2018-05-07T00:14:32.123Z,2.20
2018-05-07T00:16:58.810Z,1.90
2018-05-07T00:19:25.508Z,1.90
2018-05-07T00:21:52.149Z,2.20
2018-05-07T00:24:18.877Z,1.80
2018-05-07T00:26:46.271Z,1.90
2018-05-07T00:29:12.899Z,2.00
2018-05-07T00:31:39.532Z,2.10
2018-05-07T00:34:12.345Z,2.43
2018-05-07T00:36:39.003Z,2.30
2018-05-07T00:39:06.415Z,2.37
2018-05-07T00:41:33.060Z,2.73
2018-05-07T00:43:59.713Z,2.20
2018-05-07T00:46:26.373Z,2.60
2018-05-07T00:48:53.325Z,2.60
2018-05-07T00:51:20.859Z,2.20
2018-05-07T00:53:47.509Z,2.40
2018-05-07T00:56:14.189Z,2.30
2018-05-07T00:58:41.601Z,2.20
2018-05-07T01:01:08.260Z,2.40
2018-05-07T01:03:34.890Z,2.23
2018-05-07T01:06:01.598Z,2.43
2018-05-07T01:08:28.269Z,2.10
2018-05-07T01:10:54.933Z,2.30
2018-05-07T01:13:22.329Z,2.60
2018-05-07T01:15:48.962Z,2.00
2018-05-07T01:18:15.603Z,2.47
2018-05-07T01:20:42.270Z,2.50
2018-05-07T01:23:09.020Z,2.20
2018-05-07T01:25:35.663Z,2.40
2018-05-07T01:28:02.464Z,2.53
2018-05-07T01:30:29.226Z,2.80
2018-05-07T01:32:56.017Z,2.40
2018-05-07T01:35:23.359Z,2.40
2018-05-07T01:37:50.770Z,2.50
2018-05-07T01:40:17.425Z,2.40
2018-05-07T01:42:44.085Z,2.67
2018-05-07T01:45:10.806Z,2.83
2018-05-07T01:47:37.448Z,2.73
2018-05-07T01:50:04.094Z,2.93
2018-05-07T01:52:30.805Z,2.50
2018-05-07T01:54:57.441Z,3.17
2018-05-07T01:57:24.269Z,3.10
2018-05-07T01:59:50.924Z,2.90
2018-05-07T02:02:17.586Z,2.87
2018-05-07T02:04:44.359Z,2.87
2018-05-07T02:07:11.768Z,2.97
2018-05-07T02:09:38.396Z,3.10
2018-05-07T02:12:05.051Z,3.27
2018-05-07T02:14:31.819Z,3.50
2018-05-07T02:16:58.604Z,3.20
2018-05-07T02:19:25.362Z,2.83
2018-05-07T02:21:51.989Z,3.33
2018-05-07T02:24:18.657Z,3.50
2018-05-07T02:26:45.503Z,3.20
2018-05-07T02:29:12.352Z,3.37
2018-05-07T02:31:38.974Z,3.47
2018-05-07T02:34:05.717Z,3.30
2018-05-07T02:36:32.338Z,3.03
2018-05-07T02:38:59.150Z,3.13
2018-05-07T02:41:25.753Z,3.30
2018-05-07T02:43:52.380Z,2.93
2018-05-07T02:46:19.912Z,3.20
2018-05-07T02:48:46.684Z,3.07
2018-05-07T02:51:13.332Z,3.60
2018-05-07T02:53:39.967Z,3.70
2018-05-07T02:56:08.111Z,3.27
2018-05-07T02:58:34.720Z,3.30
2018-05-07T03:01:01.360Z,2.93
2018-05-07T03:03:28.011Z,3.20
2018-05-07T03:05:54.638Z,3.43
2018-05-07T03:08:21.630Z,3.50
2018-05-07T03:10:48.387Z,3.37
2018-05-07T03:13:15.106Z,2.90
2018-05-07T03:15:41.804Z,3.37
2018-05-07T03:18:08.469Z,3.40
2018-05-07T03:20:35.156Z,3.00
2018-05-07T03:23:02.569Z,2.90
2018-05-07T03:25:29.170Z,3.63
2018-05-07T03:27:55.848Z,3.47
2018-05-07T03:30:22.502Z,3.23
2018-05-07T03:32:49.109Z,3.20
2018-05-07T03:35:15.728Z,3.10
2018-05-07T03:37:42.702Z,3.27
2018-05-07T03:40:09.389Z,3.33
2018-05-07T03:42:36.897Z,2.90
2018-05-07T03:45:03.739Z,3.23
2018-05-07T03:47:30.413Z,3.07
2018-05-07T03:49:57.042Z,3.10
2018-05-07T03:52:23.737Z,3.10
2018-05-07T03:54:50.394Z,3.20
2018-05-07T03:57:17.131Z,3.30
2018-05-07T03:59:43.837Z,2.97
2018-05-07T04:02:10.423Z,3.33
2018-05-07T04:04:37.148Z,3.03
2018-05-07T04:07:04.723Z,3.00
2018-05-07T04:09:31.819Z,3.20
2018-05-07T04:11:59.172Z,3.77
2018-05-07T04:14:26.586Z,3.67
2018-05-07T04:17:10.284Z,2.87
2018-05-07T04:19:55.391Z,3.77
2018-05-07T04:22:40.461Z,3.30
2018-05-07T04:25:07.133Z,3.80
2018-05-07T04:27:33.776Z,4.13
2018-05-07T04:30:00.396Z,3.53
2018-05-07T04:32:27.033Z,3.57
2018-05-07T04:34:53.651Z,3.53
2018-05-07T04:37:20.442Z,3.53
2018-05-07T04:39:47.865Z,3.47
2018-05-07T04:42:14.612Z,3.73
2018-05-07T04:44:41.443Z,3.53
2018-05-07T04:47:08.068Z,3.57
2018-05-07T04:49:34.740Z,3.53
2018-05-07T04:52:01.596Z,3.00
2018-05-07T04:54:28.403Z,3.70
2018-05-07T04:56:55.064Z,3.57
2018-05-07T04:59:21.704Z,3.43
2018-05-07T05:01:48.346Z,3.60
2018-05-07T05:04:15.305Z,3.27
2018-05-07T05:06:42.719Z,3.60
2018-05-07T05:09:09.471Z,3.40
2018-05-07T05:11:36.097Z,3.50
2018-05-07T05:14:03.013Z,4.07
2018-05-07T05:16:29.691Z,3.90
2018-05-07T05:18:56.380Z,4.20
2018-05-07T05:21:23.769Z,4.50
2018-05-07T05:23:50.522Z,3.70
2018-05-07T05:26:17.162Z,4.37
2018-05-07T05:28:43.802Z,4.03
2018-05-07T05:31:10.472Z,3.97
2018-05-07T05:33:37.234Z,3.60
2018-05-07T05:36:04.634Z,3.83
2018-05-07T05:38:31.328Z,4.07
2018-05-07T05:41:13.917Z,4.27
2018-05-07T05:43:41.030Z,4.80
2018-05-07T05:46:07.836Z,4.23
2018-05-07T05:48:35.231Z,4.23
2018-05-07T05:51:01.877Z,4.80
2018-05-07T05:53:33.069Z,4.10
2018-05-07T05:55:59.934Z,4.33
2018-05-07T05:58:26.605Z,4.10
2018-05-07T06:00:53.268Z,4.60
2018-05-07T06:03:19.991Z,4.23
2018-05-07T06:05:46.632Z,4.73
2018-05-07T06:08:13.260Z,4.50
2018-05-07T06:10:40.034Z,4.50
2018-05-07T06:13:06.701Z,4.70
2018-05-07T06:15:34.215Z,4.70
2018-05-07T06:18:01.033Z,4.47
2018-05-07T06:20:27.816Z,4.67
2018-05-07T06:22:54.444Z,4.97
2018-05-07T06:25:21.215Z,4.90
2018-05-07T06:27:48.632Z,4.57
2018-05-07T06:30:15.310Z,4.80
2018-05-07T06:32:41.975Z,4.80
2018-05-07T06:35:08.607Z,5.10
2018-05-07T06:37:35.975Z,4.20
2018-05-07T06:40:02.604Z,4.47
2018-05-07T06:42:29.335Z,4.20
2018-05-07T06:44:56.840Z,4.50
2018-05-07T06:47:23.480Z,4.80
2018-05-07T06:49:50.253Z,4.60
2018-05-07T06:52:16.903Z,4.30
2018-05-07T06:54:43.541Z,4.63
2018-05-07T06:57:10.926Z,4.40
2018-05-07T06:59:37.684Z,4.90
2018-05-07T07:02:04.395Z,4.87
2018-05-07T07:04:30.956Z,4.40
2018-05-07T07:06:57.592Z,4.40
2018-05-07T07:09:24.267Z,4.70
2018-05-07T07:11:50.925Z,4.60
2018-05-07T07:14:22.597Z,4.43
2018-05-07T07:16:50.001Z,4.70
2018-05-07T07:19:16.772Z,4.40
2018-05-07T07:21:43.408Z,4.17
2018-05-07T07:24:10.112Z,4.47
2018-05-07T07:26:36.728Z,4.37
2018-05-07T07:29:03.418Z,3.60
2018-05-07T07:31:30.055Z,4.50
2018-05-07T07:33:56.777Z,4.10
2018-05-07T07:36:24.141Z,4.97
2018-05-07T07:38:50.821Z,4.33
2018-05-07T07:41:18.287Z,3.80
2018-05-07T07:43:45.793Z,3.80
2018-05-07T07:46:12.548Z,3.40
2018-05-07T07:48:39.668Z,3.30
2018-05-07T07:51:06.332Z,3.67
2018-05-07T07:53:33.007Z,3.47
2018-05-07T07:55:59.649Z,3.87
2018-05-07T07:58:27.029Z,4.00
2018-05-07T08:00:53.672Z,4.27
2018-05-07T08:03:20.361Z,3.70
2018-05-07T08:05:46.991Z,4.13
2018-05-07T08:08:13.767Z,3.73
2018-05-07T08:10:41.129Z,3.60
2018-05-07T08:13:07.796Z,3.50
2018-05-07T08:15:34.426Z,4.13
2018-05-07T08:18:01.053Z,4.13
2018-05-07T08:20:27.703Z,3.67
2018-05-07T08:22:54.392Z,3.00
2018-05-07T08:25:21.775Z,3.53
2018-05-07T08:27:49.162Z,3.17
2018-05-07T08:30:15.978Z,3.27
2018-05-07T08:32:42.805Z,3.80
2018-05-07T08:35:10.169Z,3.30
2018-05-07T08:37:37.592Z,3.47
2018-05-07T08:40:04.253Z,3.80
2018-05-07T08:42:31.674Z,4.40
2018-05-07T08:44:58.318Z,3.80
2018-05-07T08:47:24.960Z,3.43
2018-05-07T08:49:51.566Z,3.50
2018-05-07T08:52:18.174Z,3.73
2018-05-07T08:54:44.825Z,3.03
2018-05-07T08:57:11.721Z,3.13
2018-05-07T08:59:38.421Z,3.07
2018-05-07T09:02:05.102Z,3.00
2018-05-07T09:04:31.700Z,3.00
2018-05-07T09:06:58.321Z,3.30
2018-05-07T09:09:24.974Z,3.03
2018-05-07T09:11:51.630Z,2.90
2018-05-07T09:14:18.265Z,2.90
2018-05-07T09:16:44.905Z,3.00
2018-05-07T09:19:11.577Z,2.87
2018-05-07T09:21:42.261Z,2.60
2018-05-07T09:24:08.914Z,3.20
2018-05-07T09:26:35.556Z,2.97
2018-05-07T09:29:02.200Z,2.60
2018-05-07T09:31:28.907Z,2.60
2018-05-07T09:33:56.275Z,2.63
2018-05-07T09:36:22.929Z,2.70
2018-05-07T09:38:49.587Z,2.27
2018-05-07T09:41:16.322Z,2.53
2018-05-07T09:43:43.679Z,2.23
2018-05-07T09:46:10.488Z,2.20
2018-05-07T09:48:37.159Z,2.47
2018-05-07T09:51:03.859Z,2.90
2018-05-07T09:53:30.635Z,2.67
2018-05-07T09:55:57.299Z,2.93
2018-05-07T09:58:23.961Z,2.70
2018-05-07T10:00:51.332Z,2.87
2018-05-07T10:03:18.056Z,2.13
2018-05-07T10:05:45.418Z,2.27
2018-05-07T10:08:12.790Z,2.50
2018-05-07T10:10:39.481Z,2.17
2018-05-07T10:13:06.124Z,2.40
2018-05-07T10:15:32.865Z,2.70
2018-05-07T10:17:59.508Z,2.60
2018-05-07T10:20:26.619Z,2.50
2018-05-07T10:22:53.384Z,2.57
2018-05-07T10:25:20.858Z,2.30
2018-05-07T10:27:47.560Z,2.17
2018-05-07T10:30:14.211Z,2.37
2018-05-07T10:32:41.035Z,2.87
2018-05-07T10:35:07.708Z,2.60
2018-05-07T10:37:35.818Z,2.30
2018-05-07T10:40:02.695Z,2.30
2018-05-07T10:42:29.360Z,2.57
2018-05-07T10:44:56.167Z,2.27
2018-05-07T10:47:22.798Z,2.40
2018-05-07T10:49:49.613Z,2.30
2018-05-07T10:52:17.021Z,2.10
2018-05-07T10:54:43.631Z,2.10
2018-05-07T10:57:10.436Z,2.20
2018-05-07T10:59:37.997Z,2.30
2018-05-07T11:02:04.667Z,2.00
2018-05-07T11:04:31.285Z,2.10
2018-05-07T11:06:58.983Z,1.87
2018-05-07T11:09:26.361Z,1.80
2018-05-07T11:12:02.792Z,2.23
2018-05-07T11:14:30.276Z,2.13
2018-05-07T11:16:56.929Z,2.40
2018-05-07T11:19:23.631Z,1.90
2018-05-07T11:21:50.327Z,2.13
2018-05-07T11:24:18.443Z,2.33
2018-05-07T11:26:45.145Z,2.23
2018-05-07T11:29:17.625Z,1.90
2018-05-07T11:31:44.768Z,2.13
2018-05-07T11:34:11.445Z,2.30
2018-05-07T11:36:38.151Z,2.23
2018-05-07T11:39:06.311Z,2.20
2018-05-07T11:41:33.097Z,2.23
2018-05-07T11:43:59.723Z,2.17
2018-05-07T11:46:27.146Z,2.13
2018-05-07T11:48:53.785Z,1.93
2018-05-07T11:51:20.499Z,1.97
2018-05-07T11:53:47.131Z,2.27
2018-05-07T11:56:13.950Z,2.17
2018-05-07T11:58:41.401Z,1.70
2018-05-07T12:01:08.801Z,2.23
2018-05-07T12:03:35.460Z,2.20
2018-05-07T12:06:03.082Z,2.30
2018-05-07T12:08:29.776Z,2.13
2018-05-07T12:10:56.469Z,1.93
2018-05-07T12:13:23.119Z,2.07
2018-05-07T12:15:49.942Z,2.50
2018-05-07T12:18:16.675Z,2.70
2018-05-07T12:20:43.354Z,2.43
2018-05-07T12:23:10.110Z,2.30
2018-05-07T12:25:36.698Z,2.30
2018-05-07T12:28:03.311Z,2.10
2018-05-07T12:30:30.711Z,2.43
2018-05-07T12:32:57.365Z,2.40
2018-05-07T12:35:24.041Z,2.43
2018-05-07T12:37:51.445Z,2.40
2018-05-07T12:40:18.067Z,2.13
2018-05-07T12:42:44.759Z,2.33
2018-05-07T12:45:11.402Z,2.10
2018-05-07T12:47:38.041Z,2.27
2018-05-07T12:50:06.362Z,2.20
2018-05-07T12:52:33.173Z,2.27
2018-05-07T12:55:00.700Z,2.10
2018-05-07T12:57:27.353Z,2.00
2018-05-07T12:59:54.035Z,2.43
2018-05-07T13:02:20.704Z,2.20
2018-05-07T13:04:47.410Z,2.37
2018-05-07T13:07:14.073Z,2.40
2018-05-07T13:09:40.750Z,2.40
2018-05-07T13:12:07.437Z,2.33
2018-05-07T13:14:34.815Z,2.37
2018-05-07T13:17:01.646Z,2.40
2018-05-07T13:19:28.309Z,2.27
2018-05-07T13:21:54.989Z,2.17
2018-05-07T13:24:22.358Z,1.83
2018-05-07T13:26:49.159Z,2.30
2018-05-07T13:29:15.841Z,2.47
2018-05-07T13:31:42.550Z,2.13
2018-05-07T13:34:09.166Z,2.43
2018-05-07T13:36:35.801Z,2.27
2018-05-07T13:39:02.517Z,2.20
2018-05-07T13:41:29.183Z,2.70
2018-05-07T13:43:55.885Z,2.07
2018-05-07T13:46:22.515Z,2.40
2018-05-07T13:48:49.181Z,1.90
2018-05-07T13:51:16.453Z,2.10
2018-05-07T13:53:43.175Z,1.97
2018-05-07T13:56:09.875Z,2.00
2018-05-07T13:58:37.241Z,2.03
2018-05-07T14:01:04.004Z,2.20
2018-05-07T14:03:30.640Z,2.53
2018-05-07T14:05:58.196Z,2.23
2018-05-07T14:08:24.850Z,2.20
2018-05-07T14:10:51.604Z,2.10
2018-05-07T14:13:18.262Z,2.50
2018-05-07T14:15:44.917Z,2.60
2018-05-07T14:18:12.335Z,2.20
2018-05-07T14:20:39.056Z,2.17
2018-05-07T14:23:05.724Z,2.27
2018-05-07T14:25:32.417Z,2.20
2018-05-07T14:27:59.084Z,2.40
2018-05-07T14:30:25.732Z,2.40
2018-05-07T14:32:52.393Z,2.73
2018-05-07T14:35:19.018Z,2.57
2018-05-07T14:37:45.629Z,2.57
2018-05-07T14:40:12.315Z,2.30
2018-05-07T14:42:38.944Z,2.30
2018-05-07T14:45:05.619Z,2.37
2018-05-07T14:47:32.997Z,2.27
2018-05-07T14:49:59.657Z,2.23
2018-05-07T14:52:26.988Z,2.60
2018-05-07T14:54:53.700Z,2.57
2018-05-07T14:57:21.140Z,2.20
2018-05-07T14:59:47.795Z,2.47
2018-05-07T15:02:15.193Z,2.40
2018-05-07T15:04:42.008Z,2.80
2018-05-07T15:07:08.614Z,2.60
2018-05-07T15:09:35.464Z,2.40
2018-05-07T15:12:02.098Z,2.60
2018-05-07T15:14:28.819Z,2.60
2018-05-07T15:16:55.637Z,2.37
2018-05-07T15:19:22.436Z,2.27
2018-05-07T15:21:50.079Z,2.23
2018-05-07T15:24:16.885Z,2.20
2018-05-07T15:26:43.697Z,2.50
2018-05-07T15:29:11.141Z,2.00
2018-05-07T15:31:37.827Z,2.10
2018-05-07T15:34:04.558Z,2.10
2018-05-07T15:36:31.202Z,1.97
2018-05-07T15:41:26.059Z,2.30
2018-05-07T15:43:53.708Z,2.00
2018-05-07T15:46:20.253Z,2.13
2018-05-07T15:48:46.965Z,2.10
2018-05-07T15:51:13.664Z,2.47
2018-05-07T15:53:40.473Z,2.27
2018-05-07T15:56:07.889Z,2.33
2018-05-07T15:58:34.516Z,2.37
2018-05-07T16:01:01.262Z,2.30
2018-05-07T16:03:27.958Z,2.03
2018-05-07T16:05:54.665Z,2.00
2018-05-07T16:08:21.440Z,2.00
2018-05-07T16:10:48.108Z,2.13
2018-05-07T16:13:14.759Z,2.10
2018-05-07T16:15:41.415Z,2.27
2018-05-07T16:18:08.046Z,2.40
2018-05-07T16:20:34.806Z,2.40
2018-05-07T16:23:01.595Z,2.30
2018-05-07T16:25:29.045Z,2.30
2018-05-07T16:27:56.653Z,2.40
2018-05-07T16:30:23.305Z,2.20
2018-05-07T16:32:50.148Z,2.47
2018-05-07T16:35:16.826Z,2.03
2018-05-07T16:37:44.263Z,2.40
2018-05-07T16:40:10.857Z,2.10
2018-05-07T16:42:37.575Z,2.20
2018-05-07T16:45:04.170Z,2.20
2018-05-07T16:47:30.865Z,1.93
2018-05-07T16:49:57.521Z,2.17
2018-05-07T16:52:24.347Z,2.40
2018-05-07T16:54:51.024Z,2.20
2018-05-07T16:57:17.672Z,1.83
2018-05-07T16:59:45.743Z,2.37
2018-05-07T17:02:12.346Z,1.90
2018-05-07T17:04:38.995Z,2.20
2018-05-07T17:07:05.793Z,1.90
2018-05-07T17:09:33.256Z,2.03
2018-05-07T17:12:00.710Z,2.30
2018-05-07T17:14:28.142Z,2.47
2018-05-07T17:16:54.798Z,2.20
2018-05-07T17:19:23.214Z,2.20
2018-05-07T17:21:49.945Z,2.20
2018-05-07T17:24:16.849Z,1.97
2018-05-07T17:26:43.659Z,2.20
2018-05-07T17:29:10.397Z,2.00
2018-05-07T17:31:37.180Z,2.20
2018-05-07T17:34:04.042Z,1.90
2018-05-07T17:36:31.592Z,2.07
2018-05-07T17:39:00.263Z,2.20
2018-05-07T17:41:26.971Z,2.30
2018-05-07T17:43:53.761Z,2.90
2018-05-07T17:49:30.453Z,2.20
2018-05-07T17:51:57.848Z,2.00
2018-05-07T17:54:24.580Z,2.20
2018-05-07T17:56:51.288Z,2.10
2018-05-07T17:59:17.942Z,2.10
2018-05-07T18:01:45.461Z,2.03
2018-05-07T18:04:12.281Z,2.13
2018-05-07T18:06:39.145Z,1.63
2018-05-07T18:09:05.859Z,2.10
2018-05-07T18:11:32.833Z,1.73
2018-05-07T18:13:59.731Z,1.80
2018-05-07T18:16:26.459Z,2.17
2018-05-07T18:18:54.406Z,1.80
2018-05-07T18:21:21.130Z,2.20
2018-05-07T18:23:47.765Z,2.50
2018-05-07T18:26:14.472Z,1.90
2018-05-07T18:28:41.945Z,2.00
2018-05-07T18:31:08.673Z,1.77
2018-05-07T18:33:35.534Z,2.10
2018-05-07T18:36:02.198Z,2.00
2018-05-07T18:38:28.994Z,2.70
2018-05-07T18:40:55.767Z,1.83
2018-05-07T18:43:22.425Z,2.27
2018-05-07T18:45:49.212Z,1.87
2018-05-07T18:48:15.762Z,1.70
2018-05-07T18:50:42.417Z,2.30
2018-05-07T18:53:09.097Z,1.93
2018-05-07T18:55:36.515Z,1.83
2018-05-07T18:58:03.189Z,2.30
2018-05-07T19:00:30.600Z,1.97
2018-05-07T19:02:57.284Z,2.10
2018-05-07T19:05:24.754Z,2.53
2018-05-07T19:07:52.169Z,2.40
2018-05-07T19:10:18.828Z,2.20
2018-05-07T19:12:45.574Z,2.20
2018-05-07T19:15:12.510Z,2.13
2018-05-07T19:17:39.324Z,2.00
2018-05-07T19:20:06.638Z,2.00
2018-05-07T19:22:33.345Z,2.00
2018-05-07T19:25:00.767Z,2.27
2018-05-07T19:27:27.517Z,2.13
2018-05-07T19:29:54.204Z,2.03
2018-05-07T19:32:20.845Z,2.07
2018-05-07T19:34:48.402Z,2.27
2018-05-07T19:37:15.818Z,2.10
2018-05-07T19:39:42.703Z,2.03
2018-05-07T19:42:10.138Z,2.43
2018-05-07T19:44:36.806Z,2.27
2018-05-07T19:47:04.209Z,2.20
2018-05-07T19:49:30.914Z,2.30
2018-05-07T19:51:58.694Z,2.30
2018-05-07T19:54:25.530Z,2.90
2018-05-07T19:56:52.186Z,2.53
2018-05-07T19:59:18.873Z,2.17
2018-05-07T20:01:46.361Z,2.00
2018-05-07T20:04:13.062Z,3.47
2018-05-07T20:06:39.805Z,2.40
2018-05-07T20:09:06.475Z,2.40
2018-05-07T20:11:33.185Z,2.03
2018-05-07T20:13:59.861Z,2.17
2018-05-07T20:16:26.609Z,2.13
2018-05-07T20:18:53.323Z,2.20
2018-05-07T20:21:20.732Z,2.10
2018-05-07T20:23:47.539Z,2.10
2018-05-07T20:26:14.232Z,2.50
2018-05-07T20:28:40.895Z,2.57
2018-05-07T20:31:08.256Z,1.70
2018-05-07T20:33:34.971Z,2.00
2018-05-07T20:36:01.629Z,2.00
2018-05-07T20:38:29.061Z,1.70
2018-05-07T20:40:55.754Z,1.90
2018-05-07T20:43:22.419Z,2.00
2018-05-07T20:45:49.163Z,1.70
2018-05-07T20:48:15.870Z,1.90
2018-05-07T20:50:42.458Z,2.07
2018-05-07T20:53:09.113Z,2.17
2018-05-07T20:55:37.296Z,1.90
2018-05-07T20:58:04.670Z,2.00
2018-05-07T21:00:31.345Z,2.00
2018-05-07T21:02:58.053Z,1.90
2018-05-07T21:05:24.657Z,2.00
2018-05-07T21:07:51.347Z,1.70
2018-05-07T21:10:18.181Z,2.23
2018-05-07T21:12:44.836Z,1.83
2018-05-07T21:15:11.493Z,2.00
2018-05-07T21:17:38.131Z,1.87
2018-05-07T21:20:05.018Z,1.70
2018-05-07T21:22:32.534Z,1.83
2018-05-07T21:24:59.378Z,1.90
2018-05-07T21:27:25.979Z,2.10
2018-05-07T21:29:52.683Z,1.70
2018-05-07T21:32:20.078Z,1.80
2018-05-07T21:34:46.750Z,1.97
2018-05-07T21:37:13.424Z,1.97
2018-05-07T21:39:40.972Z,1.90
2018-05-07T21:42:07.778Z,2.10
2018-05-07T21:44:34.402Z,1.97
2018-05-07T21:47:01.155Z,2.00
2018-05-07T21:49:27.856Z,2.10
2018-05-07T21:51:55.353Z,2.33
2018-05-07T21:54:22.034Z,2.10
2018-05-07T21:56:49.400Z,1.70
2018-05-07T21:59:16.806Z,1.80
2018-05-07T22:01:43.466Z,1.80
2018-05-07T22:04:10.166Z,2.00
2018-05-07T22:06:36.852Z,2.10
2018-05-07T22:09:03.616Z,2.17
2018-05-07T22:11:31.001Z,2.03
2018-05-07T22:13:57.639Z,2.10
2018-05-07T22:16:24.338Z,2.23
2018-05-07T22:18:50.987Z,2.00
2018-05-07T22:21:18.400Z,2.20
2018-05-07T22:23:45.039Z,2.13
2018-05-07T22:26:11.754Z,2.00
2018-05-07T22:28:39.178Z,2.00
2018-05-07T22:31:06.754Z,2.00
2018-05-07T22:33:34.160Z,2.07
2018-05-07T22:36:00.829Z,1.90
2018-05-07T22:38:28.228Z,1.90
2018-05-07T22:40:54.881Z,2.23
2018-05-07T22:43:21.656Z,2.10
2018-05-07T22:45:49.032Z,2.33
2018-05-07T22:48:16.408Z,2.13
2018-05-07T22:50:43.075Z,2.07
2018-05-07T22:53:09.724Z,2.07
2018-05-07T22:55:36.368Z,2.33
2018-05-07T22:58:03.023Z,2.17
2018-05-07T23:00:29.708Z,2.07
2018-05-07T23:02:56.321Z,2.13
2018-05-07T23:05:23.710Z,2.67
2018-05-07T23:07:50.430Z,2.10
2018-05-07T23:10:17.155Z,2.40
2018-05-07T23:12:44.535Z,2.37
2018-05-07T23:15:11.180Z,2.43
2018-05-07T23:17:38.288Z,2.10
2018-05-07T23:20:05.678Z,2.33
2018-05-07T23:22:32.365Z,2.10
2018-05-07T23:24:59.013Z,2.40
2018-05-07T23:27:25.660Z,2.10
2018-05-07T23:29:52.311Z,2.50
2018-05-07T23:32:19.903Z,2.10
2018-05-07T23:34:46.727Z,2.17
2018-05-07T23:37:13.622Z,2.20
2018-05-07T23:39:40.286Z,2.40
2018-05-07T23:42:07.689Z,2.20
2018-05-07T23:44:34.339Z,2.50
2018-05-07T23:47:00.983Z,2.70
2018-05-07T23:49:27.623Z,2.70
2018-05-07T23:51:54.311Z,2.60
2018-05-07T23:54:21.864Z,2.70
2018-05-07T23:56:49.423Z,2.70
2018-05-07T23:59:16.870Z,2.70
